Time;durP1;ratioP1;P1;durP2;ratioP2;P2;SDS_P1;SDS_P2;PMS_P1;PMS_P2;Temp;Humidity;BMP_temperature;BMP_pressure;BME280_temperature;BME280_humidity;BME280_pressure;Samples;Min_cycle;Max_cycle;Signal;HPM_P1;HPM_P2
2021/01/13 00:01:41;;;;;;;30.88;7.78;;;;;;;;;;5031388;28;20018;-68
2021/01/13 00:04:06;;;;;;;21.73;7.45;;;;;;;;;;5031551;28;20513;-65
2021/01/13 00:06:32;;;;;;;27.73;7.88;;;;;;;;;;5031717;28;20022;-62
2021/01/13 00:08:57;;;;;;;26.70;8.05;;;;;;;;;;5031576;28;20025;-63
2021/01/13 00:11:23;;;;;;;37.20;8.15;;;;;;;;;;5030952;28;20486;-63
2021/01/13 00:13:48;;;;;;;19.77;8.30;;;;;;;;;;5031582;28;20019;-62
2021/01/13 00:16:13;;;;;;;21.95;7.07;;;;;;;;;;5030693;28;20100;-63
2021/01/13 00:18:39;;;;;;;17.30;6.90;;;;;;;;;;5031966;28;20031;-63
2021/01/13 00:21:04;;;;;;;37.30;8.52;;;;;;;;;;5030348;28;20029;-63
2021/01/13 00:23:30;;;;;;;25.40;8.52;;;;;;;;;;5030109;28;20025;-63
2021/01/13 00:25:55;;;;;;;23.83;7.65;;;;;;;;;;5031573;28;20029;-63
2021/01/13 00:28:20;;;;;;;26.00;8.88;;;;;;;;;;5031061;28;20088;-63
2021/01/13 00:30:46;;;;;;;29.65;7.78;;;;;;;;;;5030706;28;20023;-63
2021/01/13 00:33:11;;;;;;;25.77;7.93;;;;;;;;;;5030535;28;20025;-65
2021/01/13 00:35:36;;;;;;;31.95;8.75;;;;;;;;;;5030826;28;20341;-63
2021/01/13 00:38:01;;;;;;;25.35;8.82;;;;;;;;;;5030853;28;20022;-63
2021/01/13 00:40:27;;;;;;;25.30;8.70;;;;;;;;;;5030620;28;20017;-63
2021/01/13 00:42:52;;;;;;;22.42;8.60;;;;;;;;;;5030740;28;20025;-64
2021/01/13 00:45:18;;;;;;;24.15;8.52;;;;;;;;;;5029251;28;20046;-63
2021/01/13 00:47:43;;;;;;;23.02;8.50;;;;;;;;;;5032488;28;20018;-63
2021/01/13 00:50:09;;;;;;;27.35;9.38;;;;;;;;;;5030774;28;20398;-63
2021/01/13 00:52:34;;;;;;;27.95;8.73;;;;;;;;;;5026581;28;20116;-63
2021/01/13 00:55:00;;;;;;;28.50;8.75;;;;;;;;;;5030190;28;20085;-63
2021/01/13 00:57:25;;;;;;;33.78;9.57;;;;;;;;;;5030189;28;20048;-63
2021/01/13 00:59:50;;;;;;;25.08;8.65;;;;;;;;;;5030390;28;20074;-63
2021/01/13 01:02:15;;;;;;;26.83;9.85;;;;;;;;;;5029522;28;20497;-63
2021/01/13 01:04:40;;;;;;;32.20;9.05;;;;;;;;;;5030177;28;20021;-63
2021/01/13 01:07:07;;;;;;;28.83;9.30;;;;;;;;;;5030432;28;20076;-63
2021/01/13 01:09:32;;;;;;;32.80;11.23;;;;;;;;;;5029324;28;20113;-63
2021/01/13 01:11:57;;;;;;;30.38;8.90;;;;;;;;;;5029263;28;20109;-63
2021/01/13 01:14:23;;;;;;;28.63;9.10;;;;;;;;;;5035793;28;20060;-65
2021/01/13 01:16:48;;;;;;;26.85;9.43;;;;;;;;;;5030342;28;20390;-63
2021/01/13 01:19:13;;;;;;;30.80;10.18;;;;;;;;;;5030106;28;20014;-63
2021/01/13 01:21:42;;;;;;;28.85;9.68;;;;;;;;;;5029289;28;20014;-63
2021/01/13 01:24:08;;;;;;;32.45;10.38;;;;;;;;;;5030194;28;20025;-63
2021/01/13 01:26:40;;;;;;;30.45;10.30;;;;;;;;;;5028792;28;20401;-63
2021/01/13 01:29:05;;;;;;;43.75;12.30;;;;;;;;;;5030126;28;20505;-63
2021/01/13 01:31:31;;;;;;;25.92;9.35;;;;;;;;;;5029401;28;20056;-63
2021/01/13 01:33:56;;;;;;;27.52;10.40;;;;;;;;;;5029566;28;20061;-63
2021/01/13 01:36:21;;;;;;;29.33;10.38;;;;;;;;;;5029171;28;20482;-63
2021/01/13 01:38:46;;;;;;;26.77;10.88;;;;;;;;;;5029692;28;20022;-63
2021/01/13 01:41:15;;;;;;;30.33;9.67;;;;;;;;;;5029066;28;20585;-63
2021/01/13 01:43:42;;;;;;;22.58;10.35;;;;;;;;;;5024312;28;20676;-63
2021/01/13 01:46:08;;;;;;;47.30;12.43;;;;;;;;;;5029377;28;20112;-63
2021/01/13 01:48:42;;;;;;;44.67;12.77;;;;;;;;;;5029630;28;20108;-63
2021/01/13 01:51:08;;;;;;;24.23;10.32;;;;;;;;;;5029255;28;20021;-63
2021/01/13 01:53:38;;;;;;;31.63;10.75;;;;;;;;;;5028981;28;20071;-63
2021/01/13 01:56:16;;;;;;;31.55;10.85;;;;;;;;;;5029076;28;20046;-63
2021/01/13 01:58:45;;;;;;;38.00;11.48;;;;;;;;;;5029899;28;20040;-63
2021/01/13 02:01:11;;;;;;;30.50;10.82;;;;;;;;;;5028437;28;20033;-63
2021/01/13 02:03:49;;;;;;;29.88;11.05;;;;;;;;;;5028991;28;20033;-63
2021/01/13 02:06:16;;;;;;;28.05;11.00;;;;;;;;;;5027590;28;20025;-64
2021/01/13 02:08:41;;;;;;;28.45;12.05;;;;;;;;;;5028157;28;20029;-65
2021/01/13 02:11:15;;;;;;;29.17;11.93;;;;;;;;;;5028975;28;20025;-63
2021/01/13 02:13:40;;;;;;;28.85;10.45;;;;;;;;;;5028801;28;20017;-63
2021/01/13 02:16:05;;;;;;;32.80;12.25;;;;;;;;;;5028865;28;20367;-63
2021/01/13 02:18:34;;;;;;;43.05;10.60;;;;;;;;;;5028961;28;20028;-65
2021/01/13 02:21:01;;;;;;;32.83;11.60;;;;;;;;;;5029123;28;20097;-63
2021/01/13 02:23:31;;;;;;;33.08;11.52;;;;;;;;;;5028476;28;20021;-63
2021/01/13 02:26:03;;;;;;;35.38;11.48;;;;;;;;;;5029092;28;20402;-63
2021/01/13 02:28:28;;;;;;;26.52;11.13;;;;;;;;;;5028918;28;20032;-64
2021/01/13 02:31:05;;;;;;;40.30;13.43;;;;;;;;;;5028755;28;20386;-64
2021/01/13 02:33:32;;;;;;;33.45;11.13;;;;;;;;;;5028808;28;20053;-63
2021/01/13 02:36:06;;;;;;;33.92;10.95;;;;;;;;;;5028196;28;20152;-63
2021/01/13 02:38:32;;;;;;;32.20;12.77;;;;;;;;;;5028881;28;20474;-63
2021/01/13 02:40:58;;;;;;;40.85;12.25;;;;;;;;;;5028775;28;20021;-64
2021/01/13 02:43:26;;;;;;;36.15;12.95;;;;;;;;;;5028180;28;20018;-64
2021/01/13 02:46:09;;;;;;;42.00;11.57;;;;;;;;;;5029040;28;20152;-64
2021/01/13 02:48:40;;;;;;;37.25;11.07;;;;;;;;;;5028672;28;20386;-64
2021/01/13 02:51:13;;;;;;;40.92;13.20;;;;;;;;;;5027130;28;20548;-63
2021/01/13 02:53:53;;;;;;;36.50;13.70;;;;;;;;;;5028869;28;20029;-63
2021/01/13 02:56:38;;;;;;;48.50;15.00;;;;;;;;;;5029156;28;20029;-63
2021/01/13 02:59:08;;;;;;;32.58;13.95;;;;;;;;;;5017815;28;20036;-63
2021/01/13 03:01:35;;;;;;;38.90;15.23;;;;;;;;;;5028197;28;20045;-63
2021/01/13 03:04:00;;;;;;;39.42;14.82;;;;;;;;;;5028631;28;20533;-63
2021/01/13 03:06:28;;;;;;;42.80;15.75;;;;;;;;;;5028834;28;20096;-63
2021/01/13 03:09:02;;;;;;;42.13;15.35;;;;;;;;;;5029097;28;20105;-64
2021/01/13 03:11:27;;;;;;;46.83;15.15;;;;;;;;;;5027508;28;20026;-64
2021/01/13 03:13:55;;;;;;;41.00;14.68;;;;;;;;;;5028129;28;20036;-63
2021/01/13 03:16:20;;;;;;;40.97;16.15;;;;;;;;;;5028072;28;20030;-63
2021/01/13 03:19:02;;;;;;;43.88;15.85;;;;;;;;;;5028164;28;20361;-63
2021/01/13 03:21:32;;;;;;;40.08;14.20;;;;;;;;;;5030681;28;20049;-63
2021/01/13 03:24:00;;;;;;;39.63;13.07;;;;;;;;;;5031665;28;20017;-63
2021/01/13 03:26:30;;;;;;;36.35;13.98;;;;;;;;;;5032182;28;20036;-64
2021/01/13 03:28:55;;;;;;;41.00;15.23;;;;;;;;;;5032603;28;20029;-64
2021/01/13 03:31:31;;;;;;;43.05;13.40;;;;;;;;;;5031606;28;20128;-64
2021/01/13 03:34:00;;;;;;;29.48;13.18;;;;;;;;;;5031200;28;20029;-64
2021/01/13 03:36:45;;;;;;;38.45;14.35;;;;;;;;;;5031693;28;20030;-65
2021/01/13 03:39:11;;;;;;;43.63;13.45;;;;;;;;;;5021349;28;20033;-64
2021/01/13 03:41:55;;;;;;;38.05;14.38;;;;;;;;;;5031558;28;20728;-63
2021/01/13 03:44:26;;;;;;;41.30;15.05;;;;;;;;;;5032447;28;20028;-63
2021/01/13 03:46:52;;;;;;;33.90;12.60;;;;;;;;;;5032181;28;20130;-63
2021/01/13 03:49:20;;;;;;;39.33;14.55;;;;;;;;;;5031495;28;20482;-64
2021/01/13 03:52:03;;;;;;;42.33;12.32;;;;;;;;;;5031559;28;20105;-64
2021/01/13 03:54:33;;;;;;;58.33;15.45;;;;;;;;;;5031077;28;20032;-64
2021/01/13 03:57:00;;;;;;;44.92;15.63;;;;;;;;;;5031762;28;20017;-63
2021/01/13 03:59:45;;;;;;;43.58;14.15;;;;;;;;;;5031314;28;20482;-64
2021/01/13 04:02:15;;;;;;;46.10;13.45;;;;;;;;;;5023148;28;20040;-64
2021/01/13 04:04:41;;;;;;;;;;;;;;;;;;5030454;28;20056;-64
2021/01/13 04:07:08;;;;;;;49.08;13.20;;;;;;;;;;5031591;28;20376;-64
2021/01/13 04:09:33;;;;;;;38.63;11.95;;;;;;;;;;5031067;28;20435;-64
2021/01/13 04:12:09;;;;;;;49.80;15.25;;;;;;;;;;5030931;28;20053;-64
2021/01/13 04:14:45;;;;;;;44.90;12.68;;;;;;;;;;5032805;28;20029;-63
2021/01/13 04:17:13;;;;;;;43.97;12.95;;;;;;;;;;5034010;28;20513;-64
2021/01/13 04:19:38;;;;;;;37.58;13.93;;;;;;;;;;5037982;28;21661;-63
2021/01/13 04:22:04;;;;;;;44.53;15.65;;;;;;;;;;5031363;28;20097;-64
2021/01/13 04:24:29;;;;;;;45.08;14.88;;;;;;;;;;5029520;28;20045;-63
2021/01/13 04:26:54;;;;;;;44.83;15.90;;;;;;;;;;5030441;28;20440;-63
2021/01/13 04:29:19;;;;;;;39.35;15.95;;;;;;;;;;5030458;28;20029;-63
2021/01/13 04:31:45;;;;;;;38.22;16.75;;;;;;;;;;5029471;28;20100;-64
2021/01/13 04:34:10;;;;;;;38.00;17.17;;;;;;;;;;5031040;28;20029;-64
2021/01/13 04:36:40;;;;;;;53.58;18.60;;;;;;;;;;5030293;28;20028;-64
2021/01/13 04:39:06;;;;;;;55.72;18.60;;;;;;;;;;5031119;28;20017;-64
2021/01/13 04:41:41;;;;;;;52.13;17.58;;;;;;;;;;5029642;28;20749;-64
2021/01/13 04:44:12;;;;;;;53.90;17.77;;;;;;;;;;5030189;28;20084;-64
2021/01/13 04:46:38;;;;;;;56.83;18.25;;;;;;;;;;5030181;28;20430;-64
2021/01/13 04:49:16;;;;;;;55.83;17.63;;;;;;;;;;5030721;28;20082;-64
2021/01/13 04:51:42;;;;;;;36.17;15.70;;;;;;;;;;5029687;28;20033;-64
2021/01/13 04:54:11;;;;;;;51.80;16.50;;;;;;;;;;5029540;28;20021;-64
2021/01/13 04:56:42;;;;;;;44.85;16.05;;;;;;;;;;5030227;28;20373;-64
2021/01/13 04:59:26;;;;;;;38.78;18.30;;;;;;;;;;5030280;28;20474;-64
2021/01/13 05:02:05;;;;;;;51.38;15.98;;;;;;;;;;5028710;28;20079;-64
2021/01/13 05:04:52;;;;;;;59.30;18.35;;;;;;;;;;5029796;28;20063;-64
2021/01/13 05:07:49;;;;;;;57.60;18.63;;;;;;;;;;5030545;28;20079;-65
2021/01/13 05:10:16;;;;;;;37.42;14.40;;;;;;;;;;5006326;28;20064;-64
2021/01/13 05:12:47;;;;;;;45.95;14.07;;;;;;;;;;5029677;28;20490;-64
2021/01/13 05:15:13;;;;;;;38.90;13.55;;;;;;;;;;5027342;28;20422;-64
2021/01/13 05:17:45;;;;;;;40.60;13.52;;;;;;;;;;5028776;28;20470;-64
2021/01/13 05:20:17;;;;;;;40.28;13.07;;;;;;;;;;5030520;28;20605;-64
2021/01/13 05:22:43;;;;;;;39.53;12.77;;;;;;;;;;5029320;28;20071;-64
2021/01/13 05:25:08;;;;;;;41.65;14.98;;;;;;;;;;5029696;28;20025;-64
2021/01/13 05:27:33;;;;;;;44.00;17.00;;;;;;;;;;5029197;28;20024;-64
2021/01/13 05:29:59;;;;;;;40.00;15.45;;;;;;;;;;5029825;28;20068;-64
2021/01/13 05:32:27;;;;;;;50.65;18.33;;;;;;;;;;5029450;28;20280;-64
2021/01/13 05:34:56;;;;;;;48.38;17.77;;;;;;;;;;5029524;28;20456;-64
2021/01/13 05:37:44;;;;;;;49.10;15.32;;;;;;;;;;5029345;28;20025;-65
2021/01/13 05:40:09;;;;;;;36.13;14.57;;;;;;;;;;5028998;28;20017;-65
2021/01/13 05:42:34;;;;;;;45.95;18.45;;;;;;;;;;5028374;28;20028;-65
2021/01/13 05:45:00;;;;;;;50.47;19.08;;;;;;;;;;5028893;28;20273;-65
2021/01/13 05:47:44;;;;;;;44.95;18.90;;;;;;;;;;5029775;28;20040;-65
2021/01/13 05:50:10;;;;;;;48.00;20.95;;;;;;;;;;5028774;28;20394;-65
2021/01/13 05:52:35;;;;;;;43.67;18.10;;;;;;;;;;5029339;28;20037;-65
2021/01/13 05:55:02;;;;;;;40.70;16.60;;;;;;;;;;5029501;28;20033;-65
2021/01/13 05:57:27;;;;;;;49.75;16.42;;;;;;;;;;5029021;28;20036;-65
2021/01/13 05:59:52;;;;;;;58.55;17.65;;;;;;;;;;5029239;28;20018;-65
2021/01/13 06:02:19;;;;;;;60.10;19.27;;;;;;;;;;5028845;28;20013;-65
2021/01/13 06:04:47;;;;;;;56.42;21.27;;;;;;;;;;5029111;28;20014;-65
2021/01/13 06:07:19;;;;;;;50.13;21.58;;;;;;;;;;5029180;28;20075;-65
2021/01/13 06:09:44;;;;;;;55.22;21.08;;;;;;;;;;5029263;28;20029;-65
2021/01/13 06:12:17;;;;;;;67.90;23.20;;;;;;;;;;5027719;28;20148;-65
2021/01/13 06:14:42;;;;;;;57.65;20.88;;;;;;;;;;5028452;28;20021;-65
2021/01/13 06:17:16;;;;;;;56.05;22.38;;;;;;;;;;5066351;22;20025;-67
2021/01/13 06:19:46;;;;;;;47.30;20.23;;;;;;;;;;5030138;28;20030;-68
2021/01/13 06:22:12;;;;;;;52.13;18.42;;;;;;;;;;5024186;28;20018;-68
2021/01/13 06:24:37;;;;;;;41.28;17.30;;;;;;;;;;5034714;28;20024;-69
2021/01/13 06:27:14;;;;;;;55.45;16.08;;;;;;;;;;5037399;28;20029;-69
2021/01/13 06:29:46;;;;;;;52.45;17.98;;;;;;;;;;5025032;28;20026;-68
2021/01/13 06:32:18;;;;;;;40.88;15.75;;;;;;;;;;5026477;28;20032;-69
2021/01/13 06:34:57;;;;;;;52.63;19.73;;;;;;;;;;5029349;28;20035;-68
2021/01/13 06:37:31;;;;;;;50.70;17.92;;;;;;;;;;5025582;28;20025;-68
2021/01/13 06:39:57;;;;;;;47.75;16.15;;;;;;;;;;5025403;28;20096;-68
2021/01/13 06:42:31;;;;;;;44.17;13.82;;;;;;;;;;5008909;28;20617;-68
2021/01/13 06:44:56;;;;;;;43.13;12.20;;;;;;;;;;5026012;28;20478;-68
2021/01/13 06:47:22;;;;;;;36.72;15.10;;;;;;;;;;5025936;28;20033;-68
2021/01/13 06:49:48;;;;;;;45.05;14.35;;;;;;;;;;5026829;28;20108;-68
2021/01/13 06:52:26;;;;;;;42.03;13.80;;;;;;;;;;5026897;28;20510;-68
2021/01/13 06:54:52;;;;;;;43.88;17.92;;;;;;;;;;5034032;28;20029;-68
2021/01/13 06:57:24;;;;;;;51.78;15.73;;;;;;;;;;5030355;28;20033;-68
2021/01/13 06:59:50;;;;;;;41.40;13.45;;;;;;;;;;5026845;28;20710;-68
2021/01/13 07:02:15;;;;;;;42.35;13.65;;;;;;;;;;5029299;28;20025;-68
2021/01/13 07:04:46;;;;;;;39.47;16.00;;;;;;;;;;5031056;28;20018;-69
2021/01/13 07:07:14;;;;;;;37.17;13.15;;;;;;;;;;5030268;28;20029;-69
2021/01/13 07:09:43;;;;;;;37.00;12.07;;;;;;;;;;5030687;28;20421;-69
2021/01/13 07:12:10;;;;;;;37.88;14.95;;;;;;;;;;5030259;28;20525;-69
2021/01/13 07:14:39;;;;;;;33.83;13.35;;;;;;;;;;5030200;28;20067;-69
2021/01/13 07:17:06;;;;;;;39.67;13.57;;;;;;;;;;5032685;28;20021;-69
2021/01/13 07:19:32;;;;;;;36.97;12.90;;;;;;;;;;5031603;28;20120;-69
2021/01/13 07:21:58;;;;;;;37.63;11.95;;;;;;;;;;5031597;28;20104;-69
2021/01/13 07:24:26;;;;;;;40.20;15.82;;;;;;;;;;5031747;28;20084;-69
2021/01/13 07:26:51;;;;;;;43.33;15.40;;;;;;;;;;5031590;28;20057;-69
2021/01/13 07:29:17;;;;;;;41.65;16.42;;;;;;;;;;5031274;28;20493;-69
2021/01/13 07:31:44;;;;;;;47.78;14.38;;;;;;;;;;5031689;28;20413;-69
2021/01/13 07:34:28;;;;;;;52.40;17.85;;;;;;;;;;5013260;28;20034;-68
2021/01/13 07:36:57;;;;;;;46.38;13.55;;;;;;;;;;5030769;28;20034;-68
2021/01/13 07:39:26;;;;;;;59.23;15.60;;;;;;;;;;5030365;28;20014;-69
2021/01/13 07:42:04;;;;;;;36.83;16.45;;;;;;;;;;5027278;28;20018;-69
2021/01/13 07:44:39;;;;;;;48.80;17.67;;;;;;;;;;5030162;28;20017;-69
2021/01/13 07:47:12;;;;;;;51.50;18.50;;;;;;;;;;5032308;28;20025;-69
2021/01/13 07:49:42;;;;;;;44.20;16.38;;;;;;;;;;5031760;28;20021;-69
2021/01/13 07:52:09;;;;;;;51.30;15.57;;;;;;;;;;5031889;28;20437;-69
2021/01/13 07:54:35;;;;;;;50.38;17.25;;;;;;;;;;5032112;28;20802;-69
2021/01/13 07:57:01;;;;;;;52.63;16.73;;;;;;;;;;5013130;28;20500;-69
2021/01/13 07:59:34;;;;;;;44.97;17.92;;;;;;;;;;5030503;28;20466;-69
2021/01/13 08:02:18;;;;;;;55.58;21.40;;;;;;;;;;5030432;28;20075;-69
2021/01/13 08:04:52;;;;;;;48.70;18.45;;;;;;;;;;5030934;28;20025;-69
2021/01/13 08:07:17;;;;;;;55.42;21.00;;;;;;;;;;5030467;28;20049;-69
2021/01/13 08:09:49;;;;;;;44.33;18.30;;;;;;;;;;5012056;28;20063;-69
2021/01/13 08:12:33;;;;;;;63.55;19.60;;;;;;;;;;5031205;28;20029;-69
2021/01/13 08:15:04;;;;;;;63.17;20.30;;;;;;;;;;5031202;28;20025;-69
2021/01/13 08:17:29;;;;;;;50.33;21.05;;;;;;;;;;5012674;28;20485;-69
2021/01/13 08:20:21;;;;;;;47.33;21.48;;;;;;;;;;5030683;28;20496;-69
2021/01/13 08:50:33;;;;;;;37.45;14.48;;;;;;;;;;5027145;28;20036;-68
2021/01/13 08:53:01;;;;;;;43.38;16.77;;;;;;;;;;5027560;28;20390;-68
2021/01/13 08:55:27;;;;;;;54.97;19.10;;;;;;;;;;5028874;28;20105;-69
2021/01/13 08:58:01;;;;;;;46.78;19.20;;;;;;;;;;5029866;28;20460;-69
2021/01/13 09:00:27;;;;;;;41.55;17.05;;;;;;;;;;5030153;28;20533;-69
2021/01/13 09:03:04;;;;;;;42.22;18.50;;;;;;;;;;5028454;28;20101;-69
2021/01/13 09:05:31;;;;;;;48.03;16.88;;;;;;;;;;5030128;28;20017;-69
2021/01/13 09:07:57;;;;;;;36.72;15.30;;;;;;;;;;5029999;28;20348;-69
2021/01/13 09:10:23;;;;;;;36.97;15.30;;;;;;;;;;5029182;28;20434;-69
2021/01/13 09:12:48;;;;;;;45.90;16.40;;;;;;;;;;5029749;28;20213;-69
2021/01/13 09:15:14;;;;;;;50.45;18.05;;;;;;;;;;5017477;28;20551;-69
2021/01/13 09:17:41;;;;;;;40.42;15.18;;;;;;;;;;5031663;28;20025;-69
2021/01/13 09:20:10;;;;;;;43.45;16.08;;;;;;;;;;5010935;28;20104;-69
2021/01/13 09:22:51;;;;;;;47.38;18.23;;;;;;;;;;5030039;28;20049;-69
2021/01/13 09:25:21;;;;;;;42.53;14.98;;;;;;;;;;5028901;28;20017;-69
2021/01/13 09:27:50;;;;;;;34.10;15.02;;;;;;;;;;5026304;28;20061;-69
2021/01/13 09:30:36;;;;;;;39.08;13.38;;;;;;;;;;5028497;28;20113;-69
2021/01/13 09:33:02;;;;;;;41.67;13.80;;;;;;;;;;5040916;28;20032;-69
2021/01/13 09:35:29;;;;;;;36.90;13.68;;;;;;;;;;5030716;28;20028;-69
2021/01/13 09:37:55;;;;;;;37.45;12.30;;;;;;;;;;5029898;28;20009;-69
2021/01/13 09:40:21;;;;;;;39.67;14.93;;;;;;;;;;5027923;28;20017;-69
2021/01/13 09:42:54;;;;;;;35.55;13.25;;;;;;;;;;5030270;28;20092;-69
2021/01/13 09:45:19;;;;;;;39.22;13.18;;;;;;;;;;5030043;28;20091;-69
2021/01/13 09:47:44;;;;;;;41.77;14.97;;;;;;;;;;5029941;28;20029;-69
2021/01/13 09:50:11;;;;;;;38.00;13.20;;;;;;;;;;5029221;28;20271;-69
2021/01/13 09:52:37;;;;;;;28.73;9.60;;;;;;;;;;5030264;28;20104;-69
2021/01/13 09:55:03;;;;;;;35.22;13.52;;;;;;;;;;5029912;28;20025;-69
2021/01/13 09:57:31;;;;;;;29.15;10.27;;;;;;;;;;5029156;28;20072;-69
2021/01/13 10:00:06;;;;;;;36.92;14.20;;;;;;;;;;5025961;28;20041;-69
2021/01/13 10:02:32;;;;;;;32.58;12.40;;;;;;;;;;5028937;28;20048;-69
2021/01/13 10:04:57;;;;;;;32.45;13.60;;;;;;;;;;5028500;28;20052;-69
2021/01/13 10:07:23;;;;;;;34.40;12.25;;;;;;;;;;5028884;28;20163;-69
2021/01/13 10:09:49;;;;;;;42.97;14.88;;;;;;;;;;5027701;28;20096;-69
2021/01/13 10:12:17;;;;;;;40.60;12.30;;;;;;;;;;5027425;28;20480;-69
2021/01/13 10:14:52;;;;;;;31.30;11.25;;;;;;;;;;5028940;28;20025;-69
2021/01/13 10:17:24;;;;;;;44.72;12.15;;;;;;;;;;5027228;28;20597;-69
2021/01/13 10:19:49;;;;;;;42.42;14.13;;;;;;;;;;5027551;28;20025;-69
2021/01/13 10:22:16;;;;;;;33.53;12.57;;;;;;;;;;5027653;28;20114;-69
2021/01/13 10:24:42;;;;;;;35.35;13.55;;;;;;;;;;5028625;28;20001;-69
2021/01/13 10:27:07;;;;;;;49.42;16.73;;;;;;;;;;5026862;28;20508;-69
2021/01/13 10:29:33;;;;;;;31.42;14.05;;;;;;;;;;5028330;28;20014;-69
2021/01/13 10:38:04;;;;;;;45.55;17.15;;;;;;;;;;5029757;28;20048;-69
2021/01/13 10:40:29;;;;;;;37.85;13.23;;;;;;;;;;5029527;28;20014;-69
2021/01/13 10:42:55;;;;;;;32.92;13.15;;;;;;;;;;5032192;28;20025;-69
2021/01/13 10:45:21;;;;;;;30.23;13.45;;;;;;;;;;5031775;28;20091;-69
2021/01/13 10:47:54;;;;;;;33.60;12.30;;;;;;;;;;5032202;28;20029;-69
2021/01/13 10:50:21;;;;;;;38.65;12.82;;;;;;;;;;5028161;28;20104;-69
2021/01/13 10:52:51;;;;;;;36.67;13.57;;;;;;;;;;5035870;28;20075;-69
2021/01/13 10:55:17;;;;;;;37.40;12.95;;;;;;;;;;5031528;28;20119;-69
2021/01/13 10:57:45;;;;;;;47.00;14.10;;;;;;;;;;5031368;28;20029;-69
2021/01/13 11:00:14;;;;;;;47.53;11.68;;;;;;;;;;5031295;28;20494;-69
2021/01/13 11:02:39;;;;;;;19.05;8.38;;;;;;;;;;5031767;28;20028;-69
2021/01/13 11:05:05;;;;;;;31.50;9.95;;;;;;;;;;5029491;28;20029;-69
2021/01/13 11:07:39;;;;;;;38.40;12.07;;;;;;;;;;5030713;28;20024;-69
2021/01/13 11:10:06;;;;;;;37.88;11.57;;;;;;;;;;5031604;28;20115;-69
2021/01/13 11:12:32;;;;;;;35.83;11.77;;;;;;;;;;5031905;28;20025;-69
2021/01/13 11:14:57;;;;;;;25.70;9.00;;;;;;;;;;5030767;28;20028;-69
2021/01/13 11:17:23;;;;;;;35.03;10.77;;;;;;;;;;5032483;28;20029;-69
2021/01/13 11:19:54;;;;;;;27.15;9.35;;;;;;;;;;5031141;28;20028;-69
2021/01/13 11:22:21;;;;;;;43.97;9.90;;;;;;;;;;5031476;28;20045;-70
2021/01/13 11:24:47;;;;;;;28.08;8.70;;;;;;;;;;5030236;28;20036;-69
2021/01/13 11:27:19;;;;;;;26.65;8.25;;;;;;;;;;5030077;28;20029;-69
2021/01/13 11:29:46;;;;;;;33.35;8.70;;;;;;;;;;5030520;28;20025;-69
2021/01/13 11:32:13;;;;;;;22.40;8.80;;;;;;;;;;5032043;28;20033;-68
2021/01/13 11:34:39;;;;;;;23.05;9.02;;;;;;;;;;5029121;28;20705;-69
2021/01/13 11:37:08;;;;;;;29.30;7.68;;;;;;;;;;5026896;28;20101;-68
2021/01/13 11:39:33;;;;;;;33.97;8.65;;;;;;;;;;5030308;28;20055;-69
2021/01/13 11:42:19;;;;;;;26.98;7.95;;;;;;;;;;5030124;28;20021;-69
2021/01/13 11:44:50;;;;;;;23.88;7.40;;;;;;;;;;5029487;28;20037;-69
2021/01/13 11:47:19;;;;;;;21.08;8.15;;;;;;;;;;5029545;28;20378;-69
2021/01/13 11:49:51;;;;;;;25.50;8.05;;;;;;;;;;5030713;28;20504;-69
2021/01/13 11:52:17;;;;;;;26.77;7.95;;;;;;;;;;5030352;28;20495;-69
2021/01/13 11:54:49;;;;;;;30.85;9.32;;;;;;;;;;5031134;28;20025;-68
2021/01/13 11:57:18;;;;;;;18.17;6.03;;;;;;;;;;5030447;28;20021;-69
2021/01/13 11:59:43;;;;;;;28.55;8.13;;;;;;;;;;5030522;28;20025;-68
2021/01/13 12:02:15;;;;;;;27.90;8.18;;;;;;;;;;5030564;28;20036;-68
2021/01/13 12:04:43;;;;;;;29.52;8.93;;;;;;;;;;5030516;28;20100;-68
2021/01/13 12:07:09;;;;;;;33.30;9.02;;;;;;;;;;5027931;28;20021;-68
2021/01/13 12:09:36;;;;;;;30.23;7.88;;;;;;;;;;5029602;28;20044;-68
2021/01/13 12:12:01;;;;;;;28.38;8.80;;;;;;;;;;5030698;28;20105;-68
2021/01/13 12:14:26;;;;;;;24.92;7.68;;;;;;;;;;5030354;28;20130;-68
2021/01/13 12:17:01;;;;;;;19.63;7.38;;;;;;;;;;5028837;28;20033;-68
2021/01/13 12:19:39;;;;;;;34.92;8.35;;;;;;;;;;5051602;23;20037;-66
2021/01/13 12:22:05;;;;;;;22.42;7.50;;;;;;;;;;5027181;28;20013;-66
2021/01/13 12:24:37;;;;;;;25.27;7.15;;;;;;;;;;5027356;28;20100;-65
2021/01/13 12:27:18;;;;;;;17.13;6.50;;;;;;;;;;5027559;28;20381;-65
2021/01/13 12:29:43;;;;;;;23.98;6.80;;;;;;;;;;5014716;28;20030;-65
2021/01/13 12:32:09;;;;;;;22.13;6.35;;;;;;;;;;5010107;28;20021;-65
2021/01/13 12:34:34;;;;;;;23.38;6.43;;;;;;;;;;5010752;28;20020;-65
2021/01/13 12:37:03;;;;;;;21.27;5.73;;;;;;;;;;5012483;28;20072;-65
2021/01/13 12:39:31;;;;;;;22.17;6.75;;;;;;;;;;5011069;28;20272;-65
2021/01/13 12:42:00;;;;;;;25.38;6.78;;;;;;;;;;5010566;28;20025;-65
2021/01/13 12:44:26;;;;;;;22.17;7.40;;;;;;;;;;5009451;28;20018;-65
2021/01/13 12:46:53;;;;;;;26.17;7.15;;;;;;;;;;5009269;28;20026;-65
2021/01/13 12:49:19;;;;;;;27.60;8.77;;;;;;;;;;5010691;28;20017;-65
2021/01/13 12:51:49;;;;;;;18.70;7.07;;;;;;;;;;5014085;28;20029;-65
2021/01/13 12:54:14;;;;;;;27.92;8.02;;;;;;;;;;5011475;28;20030;-65
2021/01/13 12:56:39;;;;;;;27.77;6.93;;;;;;;;;;5011113;28;20034;-65
2021/01/13 12:59:05;;;;;;;28.65;6.85;;;;;;;;;;5009089;28;20325;-65
2021/01/13 13:01:40;;;;;;;26.60;6.97;;;;;;;;;;5009460;28;21002;-65
2021/01/13 13:04:05;;;;;;;30.45;7.28;;;;;;;;;;5010287;28;20100;-65
2021/01/13 13:06:32;;;;;;;25.65;5.97;;;;;;;;;;5007974;28;20152;-65
2021/01/13 13:09:00;;;;;;;18.17;5.28;;;;;;;;;;5006551;28;20105;-65
2021/01/13 13:11:27;;;;;;;23.25;4.95;;;;;;;;;;5008302;28;20048;-64
2021/01/13 13:13:52;;;;;;;18.65;5.90;;;;;;;;;;5007497;28;20264;-65
2021/01/13 13:16:20;;;;;;;25.85;7.03;;;;;;;;;;5008472;28;20479;-65
2021/01/13 13:18:45;;;;;;;27.73;5.90;;;;;;;;;;5010264;28;20049;-65
2021/01/13 13:21:12;;;;;;;21.40;6.57;;;;;;;;;;5010917;28;20518;-65
2021/01/13 13:23:37;;;;;;;25.17;7.53;;;;;;;;;;5010936;28;20022;-65
2021/01/13 13:26:03;;;;;;;24.73;6.00;;;;;;;;;;5010433;28;20026;-65
2021/01/13 13:28:28;;;;;;;23.80;8.18;;;;;;;;;;5010505;28;20029;-65
2021/01/13 13:30:53;;;;;;;23.63;6.13;;;;;;;;;;5010774;28;20030;-65
2021/01/13 13:33:19;;;;;;;16.08;5.20;;;;;;;;;;5010947;28;20478;-65
2021/01/13 13:35:44;;;;;;;19.92;5.88;;;;;;;;;;5009936;28;20036;-65
2021/01/13 13:38:09;;;;;;;34.55;7.47;;;;;;;;;;5010239;28;20018;-65
2021/01/13 13:40:34;;;;;;;28.85;7.07;;;;;;;;;;5010460;28;20485;-65
2021/01/13 13:42:59;;;;;;;29.57;7.03;;;;;;;;;;5010574;28;20036;-65
2021/01/13 13:45:24;;;;;;;26.00;7.87;;;;;;;;;;5009163;28;20783;-67
2021/01/13 13:47:50;;;;;;;19.00;6.83;;;;;;;;;;5008287;28;20256;-65
2021/01/13 13:50:15;;;;;;;23.70;6.35;;;;;;;;;;5009148;28;20268;-66
2021/01/13 13:52:40;;;;;;;25.50;6.10;;;;;;;;;;5010176;28;20056;-64
2021/01/13 13:55:06;;;;;;;22.17;6.70;;;;;;;;;;5009154;28;20037;-65
2021/01/13 13:57:31;;;;;;;19.60;4.93;;;;;;;;;;5008919;28;20029;-65
2021/01/13 13:59:56;;;;;;;17.43;5.20;;;;;;;;;;5006255;28;20119;-64
2021/01/13 14:02:21;;;;;;;25.87;6.90;;;;;;;;;;5007871;28;20268;-65
2021/01/13 14:04:47;;;;;;;15.43;5.45;;;;;;;;;;5008365;28;20269;-65
2021/01/13 14:07:12;;;;;;;19.42;5.55;;;;;;;;;;5012524;28;20105;-66
2021/01/13 14:09:38;;;;;;;20.75;5.82;;;;;;;;;;5008845;28;20517;-65
2021/01/13 14:12:03;;;;;;;21.58;5.30;;;;;;;;;;5009696;28;20030;-65
2021/01/13 14:14:28;;;;;;;23.98;6.15;;;;;;;;;;5008785;28;20028;-64
2021/01/13 14:16:54;;;;;;;22.97;7.20;;;;;;;;;;5009324;28;20025;-66
2021/01/13 14:19:19;;;;;;;23.83;6.75;;;;;;;;;;5008095;28;20816;-65
2021/01/13 14:21:45;;;;;;;19.13;6.20;;;;;;;;;;5009253;28;20022;-64
2021/01/13 14:24:10;;;;;;;21.00;5.03;;;;;;;;;;5009383;28;20018;-64
2021/01/13 14:26:35;;;;;;;22.27;5.30;;;;;;;;;;5009602;28;20112;-64
2021/01/13 14:29:00;;;;;;;12.75;4.80;;;;;;;;;;5008385;28;20029;-66
2021/01/13 14:31:32;;;;;;;20.40;6.18;;;;;;;;;;5009564;28;20026;-65
2021/01/13 14:33:58;;;;;;;15.10;5.50;;;;;;;;;;5009526;28;20025;-65
2021/01/13 14:36:23;;;;;;;20.60;6.82;;;;;;;;;;5013692;28;20031;-65
2021/01/13 14:38:48;;;;;;;17.07;5.53;;;;;;;;;;5009521;28;20097;-64
2021/01/13 14:41:13;;;;;;;19.27;5.78;;;;;;;;;;5009037;28;20334;-65
2021/01/13 14:43:40;;;;;;;21.17;5.67;;;;;;;;;;5009191;28;20268;-65
2021/01/13 14:46:07;;;;;;;20.13;6.97;;;;;;;;;;5009049;28;20264;-66
2021/01/13 14:48:32;;;;;;;31.15;7.35;;;;;;;;;;5008564;28;20022;-64
2021/01/13 14:50:58;;;;;;;28.27;6.07;;;;;;;;;;5009252;28;20018;-66
2021/01/13 14:53:23;;;;;;;23.90;7.57;;;;;;;;;;5008687;28;20783;-65
2021/01/13 14:55:48;;;;;;;32.80;7.85;;;;;;;;;;5008566;28;20601;-65
2021/01/13 14:58:14;;;;;;;34.30;8.60;;;;;;;;;;5009360;28;20096;-65
2021/01/13 15:00:39;;;;;;;22.23;7.00;;;;;;;;;;5008930;28;20025;-65
2021/01/13 15:03:05;;;;;;;25.00;6.93;;;;;;;;;;5009844;28;20025;-65